Time;durP1;ratioP1;P1;durP2;ratioP2;P2;SDS_P1;SDS_P2;PMS_P1;PMS_P2;Temp;Humidity;BMP_temperature;BMP_pressure;BME280_temperature;BME280_humidity;BME280_pressure;Samples;Min_cycle;Max_cycle;Signal;HPM_P1;HPM_P2
2024/02/11 00:00:35;;;;;;;13.37;9.33;;;9.00;99.90;;;;;;493906;241;27640;-73
2024/02/11 00:02:37;;;;;;;13.60;8.77;;;8.90;99.90;;;;;;493959;241;28389;-72
2024/02/11 00:04:37;;;;;;;15.90;8.87;;;8.90;99.90;;;;;;493927;241;28462;-72
2024/02/11 00:06:38;;;;;;;11.00;7.87;;;8.90;99.90;;;;;;493981;241;28463;-74
2024/02/11 00:08:40;;;;;;;14.60;9.00;;;8.90;99.90;;;;;;493996;241;28106;-72
2024/02/11 00:10:41;;;;;;;9.47;7.90;;;8.90;99.90;;;;;;493939;241;28007;-72
2024/02/11 00:12:42;;;;;;;12.30;8.07;;;8.90;99.90;;;;;;493908;241;27942;-73
2024/02/11 00:14:44;;;;;;;12.57;7.60;;;8.90;99.90;;;;;;493931;241;27595;-73
2024/02/11 00:16:45;;;;;;;9.73;7.40;;;8.90;99.90;;;;;;493867;241;28034;-74
2024/02/11 00:18:48;;;;;;;10.10;7.03;;;8.90;99.90;;;;;;493972;241;27947;-72
2024/02/11 00:20:47;;;;;;;8.30;6.90;;;8.90;99.90;;;;;;493797;241;27745;-72
2024/02/11 00:22:48;;;;;;;9.83;7.53;;;8.90;99.90;;;;;;493991;241;28060;-72
2024/02/11 00:24:50;;;;;;;9.30;7.07;;;8.90;99.90;;;;;;493983;241;27935;-73
2024/02/11 00:26:51;;;;;;;8.60;7.60;;;8.90;99.90;;;;;;493871;241;28048;-72
2024/02/11 00:28:52;;;;;;;7.73;6.70;;;8.90;99.90;;;;;;493938;241;28048;-72
2024/02/11 00:30:53;;;;;;;8.37;6.87;;;8.90;99.90;;;;;;493973;241;28055;-72
2024/02/11 00:32:58;;;;;;;7.97;6.30;;;9.00;99.90;;;;;;494005;241;28477;-73
2024/02/11 00:34:59;;;;;;;8.87;6.30;;;9.00;99.90;;;;;;493993;241;27734;-73
2024/02/11 00:37:00;;;;;;;8.63;6.80;;;9.00;99.90;;;;;;493950;241;28027;-73
2024/02/11 00:39:01;;;;;;;7.90;6.10;;;9.00;99.90;;;;;;493976;241;28615;-72
2024/02/11 00:41:04;;;;;;;7.00;6.30;;;9.00;99.90;;;;;;493974;241;29202;-72
2024/02/11 00:43:07;;;;;;;11.70;6.83;;;9.00;99.90;;;;;;493951;241;28453;-73
2024/02/11 00:45:05;;;;;;;7.57;5.60;;;8.90;99.90;;;;;;493779;241;28337;-73
2024/02/11 00:47:06;;;;;;;7.53;6.73;;;9.00;99.90;;;;;;493915;241;27935;-72
2024/02/11 00:49:09;;;;;;;6.73;6.03;;;8.90;99.90;;;;;;493962;241;27955;-72
2024/02/11 00:51:10;;;;;;;7.73;6.20;;;8.90;99.90;;;;;;493907;241;28039;-73
2024/02/11 00:53:10;;;;;;;6.87;5.80;;;9.00;99.90;;;;;;493923;241;28119;-73
2024/02/11 00:55:13;;;;;;;7.73;5.40;;;8.90;99.90;;;;;;493970;241;27536;-73
2024/02/11 00:57:13;;;;;;;5.43;4.90;;;8.90;99.90;;;;;;493738;241;27925;-72
2024/02/11 00:59:14;;;;;;;6.80;5.10;;;8.90;99.90;;;;;;493950;241;28123;-73
2024/02/11 01:01:15;;;;;;;5.17;4.67;;;8.90;99.90;;;;;;494012;241;28533;-74
2024/02/11 01:03:16;;;;;;;4.70;3.70;;;8.90;99.90;;;;;;493989;241;28382;-72
2024/02/11 01:05:19;;;;;;;4.50;4.10;;;8.90;99.90;;;;;;493991;241;28344;-72
2024/02/11 01:07:19;;;;;;;5.33;4.53;;;8.80;99.90;;;;;;493846;241;27938;-72
2024/02/11 01:09:20;;;;;;;4.80;4.30;;;8.80;99.90;;;;;;493963;241;27711;-72
2024/02/11 01:11:22;;;;;;;5.60;3.80;;;8.70;99.90;;;;;;493968;241;27827;-73
2024/02/11 01:13:23;;;;;;;4.37;3.97;;;8.60;99.90;;;;;;493921;241;28004;-73
2024/02/11 01:15:26;;;;;;;4.30;3.90;;;8.50;99.90;;;;;;493982;241;28100;-73
2024/02/11 01:17:26;;;;;;;4.43;3.97;;;8.40;99.90;;;;;;493753;241;28001;-72
2024/02/11 01:19:26;;;;;;;3.83;3.53;;;8.30;99.90;;;;;;493939;241;27945;-72
2024/02/11 01:21:28;;;;;;;3.47;3.20;;;8.20;99.90;;;;;;493981;241;28155;-73
2024/02/11 01:23:29;;;;;;;3.37;3.07;;;8.20;99.90;;;;;;493970;241;27933;-72
2024/02/11 01:25:30;;;;;;;4.70;1.93;;;8.10;99.90;;;;;;493988;241;28114;-72
2024/02/11 01:27:33;;;;;;;2.20;2.10;;;8.00;99.90;;;;;;493934;241;28026;-75
2024/02/11 01:29:35;;;;;;;1.80;1.70;;;7.90;99.90;;;;;;493884;241;27931;-72
2024/02/11 01:31:34;;;;;;;1.80;1.70;;;7.90;99.90;;;;;;493807;241;27955;-72
2024/02/11 01:33:35;;;;;;;1.80;1.70;;;7.90;99.90;;;;;;493953;241;27700;-72
2024/02/11 01:35:36;;;;;;;2.27;1.93;;;7.90;99.90;;;;;;493965;241;28544;-73
2024/02/11 01:37:40;;;;;;;2.03;1.90;;;7.80;99.90;;;;;;493936;241;28450;-75
2024/02/11 01:39:39;;;;;;;1.63;1.53;;;7.80;99.90;;;;;;493810;241;28477;-72
2024/02/11 01:41:40;;;;;;;1.97;1.87;;;7.80;99.90;;;;;;493969;241;28455;-72
2024/02/11 01:43:41;;;;;;;2.20;2.10;;;7.70;99.90;;;;;;493970;241;28422;-72
2024/02/11 01:45:45;;;;;;;2.20;2.00;;;7.70;99.90;;;;;;493984;241;27477;-72
2024/02/11 01:47:45;;;;;;;2.80;2.60;;;7.60;99.90;;;;;;493735;241;27981;-73
2024/02/11 01:49:45;;;;;;;2.50;2.30;;;7.50;99.90;;;;;;493980;241;27902;-72
2024/02/11 01:51:46;;;;;;;2.73;2.53;;;7.50;99.90;;;;;;493983;241;27979;-72
2024/02/11 01:53:49;;;;;;;2.93;2.73;;;7.40;99.90;;;;;;493975;241;28049;-72
2024/02/11 01:55:49;;;;;;;2.83;2.57;;;7.30;99.90;;;;;;493880;241;27969;-73
2024/02/11 01:57:50;;;;;;;4.73;2.70;;;7.30;99.90;;;;;;493996;241;27731;-73
2024/02/11 01:59:51;;;;;;;3.80;2.90;;;7.20;99.90;;;;;;493937;241;27584;-73
2024/02/11 02:01:54;;;;;;;3.33;3.03;;;7.20;99.90;;;;;;493938;241;27974;-72
2024/02/11 02:03:54;;;;;;;3.60;3.30;;;7.20;99.90;;;;;;493886;241;28340;-74
2024/02/11 02:05:55;;;;;;;3.70;3.40;;;7.20;99.90;;;;;;493950;241;28110;-72
2024/02/11 02:07:58;;;;;;;3.00;2.80;;;7.20;99.90;;;;;;493958;241;27694;-73
2024/02/11 02:10:00;;;;;;;4.83;4.00;;;7.20;99.90;;;;;;493809;241;27736;-73
2024/02/11 02:12:02;;;;;;;4.43;4.03;;;7.10;99.90;;;;;;493688;241;28143;-72
2024/02/11 02:14:00;;;;;;;4.37;3.97;;;7.10;99.90;;;;;;493733;241;28538;-74
2024/02/11 02:16:02;;;;;;;4.53;4.13;;;7.10;99.90;;;;;;493942;241;28183;-72
2024/02/11 02:18:03;;;;;;;5.30;4.80;;;7.00;99.90;;;;;;493954;241;28344;-72
2024/02/11 02:20:04;;;;;;;5.53;5.03;;;7.00;99.90;;;;;;493945;241;28290;-72
2024/02/11 02:22:06;;;;;;;5.97;5.37;;;6.90;99.90;;;;;;493985;241;28457;-72
2024/02/11 02:24:06;;;;;;;5.10;4.53;;;6.90;99.90;;;;;;493958;241;28872;-72
2024/02/11 02:26:08;;;;;;;5.37;4.40;;;6.90;99.90;;;;;;493919;241;28091;-72
2024/02/11 02:28:09;;;;;;;5.47;4.07;;;6.90;99.90;;;;;;493962;237;28901;-72
2024/02/11 02:30:10;;;;;;;4.87;4.43;;;6.90;99.90;;;;;;493937;241;28106;-72
2024/02/11 02:32:11;;;;;;;4.07;3.77;;;7.00;99.90;;;;;;493980;241;27956;-73
2024/02/11 02:34:13;;;;;;;5.40;4.90;;;6.90;99.90;;;;;;494016;241;27634;-74
2024/02/11 02:36:17;;;;;;;4.03;3.63;;;6.90;99.90;;;;;;493943;241;27908;-72
2024/02/11 02:38:15;;;;;;;3.80;3.50;;;6.90;99.90;;;;;;493748;241;27964;-72
2024/02/11 02:40:16;;;;;;;3.87;3.47;;;6.80;99.90;;;;;;494020;241;28654;-73
2024/02/11 02:42:20;;;;;;;7.07;3.63;;;6.80;99.90;;;;;;494020;241;28554;-73
2024/02/11 02:44:19;;;;;;;3.43;3.13;;;6.80;99.90;;;;;;493871;241;27646;-72
2024/02/11 02:46:21;;;;;;;3.30;3.00;;;6.80;99.90;;;;;;493962;241;27708;-72
2024/02/11 02:48:22;;;;;;;2.80;2.60;;;6.90;99.90;;;;;;493950;241;28160;-73
2024/02/11 02:50:23;;;;;;;5.40;3.20;;;6.80;99.90;;;;;;494038;241;28100;-75
2024/02/11 02:52:25;;;;;;;3.20;2.90;;;6.80;99.90;;;;;;494017;241;28278;-72
2024/02/11 02:54:25;;;;;;;4.67;2.87;;;6.80;99.90;;;;;;493933;237;28019;-72
2024/02/11 02:56:27;;;;;;;3.60;2.80;;;6.80;99.90;;;;;;493989;241;27909;-72
2024/02/11 02:58:28;;;;;;;3.93;3.53;;;6.80;99.90;;;;;;493989;241;28374;-73
2024/02/11 03:00:29;;;;;;;4.00;3.30;;;6.70;99.90;;;;;;494064;241;28849;-74
2024/02/11 03:02:30;;;;;;;4.60;3.40;;;6.70;99.90;;;;;;494029;241;27934;-72
2024/02/11 03:04:31;;;;;;;3.93;3.50;;;6.60;99.90;;;;;;494039;241;28157;-72
2024/02/11 03:06:35;;;;;;;6.70;3.30;;;6.60;99.90;;;;;;493956;241;27849;-72
2024/02/11 03:08:37;;;;;;;8.80;4.70;;;6.60;99.90;;;;;;493997;241;28009;-72
2024/02/11 03:10:38;;;;;;;6.37;4.27;;;6.60;99.90;;;;;;494055;241;28481;-72
2024/02/11 03:12:39;;;;;;;4.47;4.07;;;6.60;99.90;;;;;;493971;241;28719;-73
2024/02/11 03:14:40;;;;;;;7.07;3.80;;;6.60;99.90;;;;;;494018;241;28149;-72
2024/02/11 03:16:45;;;;;;;6.23;4.30;;;6.60;99.90;;;;;;493962;241;28077;-72
2024/02/11 03:18:43;;;;;;;6.13;4.60;;;6.70;99.90;;;;;;493731;241;29333;-74
2024/02/11 03:20:44;;;;;;;5.20;4.23;;;6.60;99.90;;;;;;494044;241;28431;-72
2024/02/11 03:22:45;;;;;;;6.03;4.27;;;6.60;99.90;;;;;;493991;241;29331;-73
2024/02/11 03:24:47;;;;;;;4.13;3.67;;;6.60;99.90;;;;;;493991;241;28168;-72
2024/02/11 03:26:48;;;;;;;6.05;4.80;;;6.60;99.90;;;;;;493941;241;29347;-72
2024/02/11 03:28:49;;;;;;;7.28;4.45;;;6.50;99.90;;;;;;493979;241;27536;-74
2024/02/11 03:30:50;;;;;;;9.63;5.07;;;6.60;99.90;;;;;;494032;241;27458;-72
2024/02/11 03:32:52;;;;;;;6.90;4.78;;;6.50;99.90;;;;;;493978;239;27510;-72
2024/02/11 03:34:53;;;;;;;7.27;4.40;;;6.50;99.90;;;;;;493966;241;27489;-72
2024/02/11 03:36:54;;;;;;;9.33;4.80;;;6.60;99.90;;;;;;493974;241;28811;-72
2024/02/11 03:38:56;;;;;;;7.00;5.10;;;6.50;99.90;;;;;;494009;241;29305;-73
2024/02/11 03:40:57;;;;;;;4.53;4.00;;;6.50;99.90;;;;;;493957;241;28409;-72
2024/02/11 03:42:58;;;;;;;5.37;4.53;;;6.50;99.90;;;;;;493985;241;28595;-72
2024/02/11 03:44:59;;;;;;;8.43;4.60;;;6.50;99.90;;;;;;494048;241;27606;-72
2024/02/11 03:47:04;;;;;;;5.63;4.50;;;6.40;99.90;;;;;;493999;241;28870;-72
2024/02/11 03:49:02;;;;;;;6.97;4.80;;;6.50;99.90;;;;;;493754;237;28942;-72
2024/02/11 03:51:03;;;;;;;8.37;5.17;;;6.50;99.90;;;;;;494019;241;27526;-72
2024/02/11 03:53:04;;;;;;;7.40;4.90;;;6.40;99.90;;;;;;493973;241;28550;-72
2024/02/11 03:55:06;;;;;;;7.78;5.43;;;6.50;99.90;;;;;;494044;241;28935;-73
2024/02/11 03:57:07;;;;;;;13.70;5.45;;;6.50;99.90;;;;;;493976;241;27929;-72
2024/02/11 03:59:10;;;;;;;10.00;5.17;;;6.50;99.90;;;;;;493984;241;27497;-72
2024/02/11 04:01:09;;;;;;;10.40;6.20;;;6.50;99.90;;;;;;493840;241;28799;-73
2024/02/11 04:03:11;;;;;;;9.65;6.00;;;6.50;99.90;;;;;;494002;241;28825;-72
2024/02/11 04:05:12;;;;;;;11.05;6.07;;;6.50;99.90;;;;;;494009;241;27495;-73
2024/02/11 04:07:13;;;;;;;8.73;6.45;;;6.40;99.90;;;;;;493928;241;27923;-72
2024/02/11 04:09:15;;;;;;;10.73;6.10;;;6.40;99.90;;;;;;493957;241;28113;-72
2024/02/11 04:11:17;;;;;;;11.20;6.30;;;6.40;99.90;;;;;;494025;241;27503;-73
2024/02/11 04:13:23;;;;;;;8.83;6.07;;;6.50;99.90;;;;;;493837;241;28594;-72
2024/02/11 04:15:27;;;;;;;9.53;7.10;;;6.50;99.90;;;;;;493461;241;28187;-72
2024/02/11 04:17:20;;;;;;;7.63;6.63;;;6.40;99.90;;;;;;493165;241;28052;-72
2024/02/11 04:19:21;;;;;;;10.88;6.40;;;6.40;99.90;;;;;;493880;241;28888;-72
2024/02/11 04:21:22;;;;;;;15.07;7.57;;;6.50;99.90;;;;;;494014;241;27495;-75
2024/02/11 04:23:24;;;;;;;13.40;7.60;;;6.40;99.90;;;;;;493636;241;28404;-72
2024/02/11 04:25:25;;;;;;;10.60;7.50;;;6.50;99.90;;;;;;493865;241;29059;-70
2024/02/11 04:27:26;;;;;;;9.43;6.60;;;6.40;99.90;;;;;;493802;241;28039;-72
2024/02/11 04:29:28;;;;;;;12.00;6.43;;;6.50;99.90;;;;;;493985;241;27532;-72
2024/02/11 04:31:30;;;;;;;10.13;7.60;;;6.40;99.90;;;;;;493744;241;28080;-73
2024/02/11 04:33:29;;;;;;;13.70;7.37;;;6.40;99.90;;;;;;493804;241;28824;-72
2024/02/11 04:35:31;;;;;;;10.80;6.60;;;6.50;99.90;;;;;;493857;241;28109;-73
2024/02/11 04:37:33;;;;;;;13.98;8.00;;;6.40;99.90;;;;;;493907;241;28078;-74
2024/02/11 04:39:33;;;;;;;10.80;7.23;;;6.40;99.90;;;;;;493893;241;27513;-72
2024/02/11 04:41:34;;;;;;;10.77;7.23;;;6.50;99.90;;;;;;493984;241;28423;-72
2024/02/11 04:43:36;;;;;;;13.70;7.35;;;6.40;99.90;;;;;;493902;241;29294;-72
2024/02/11 04:45:37;;;;;;;9.30;6.80;;;6.40;99.90;;;;;;493950;241;27595;-73
2024/02/11 04:47:40;;;;;;;13.40;7.65;;;6.40;99.90;;;;;;493958;241;27712;-74
2024/02/11 04:49:39;;;;;;;12.30;7.47;;;6.40;99.90;;;;;;493820;241;27462;-72
2024/02/11 04:51:41;;;;;;;11.85;6.45;;;6.40;99.90;;;;;;493953;241;27620;-72
2024/02/11 04:53:42;;;;;;;12.00;7.57;;;6.40;99.90;;;;;;493917;241;27472;-72
2024/02/11 04:55:43;;;;;;;15.32;7.50;;;6.50;99.90;;;;;;493920;241;28377;-72
2024/02/11 04:57:44;;;;;;;17.50;9.13;;;6.40;99.90;;;;;;493942;241;28147;-73
2024/02/11 04:59:46;;;;;;;17.98;8.45;;;6.40;99.90;;;;;;493921;241;28916;-72
2024/02/11 05:01:47;;;;;;;14.82;8.60;;;6.40;99.90;;;;;;493959;241;27615;-72
2024/02/11 05:03:49;;;;;;;14.17;8.43;;;6.40;99.90;;;;;;493974;241;27533;-71
2024/02/11 05:05:52;;;;;;;11.93;8.07;;;6.40;99.90;;;;;;493927;241;28008;-72
2024/02/11 05:07:53;;;;;;;13.48;8.60;;;6.30;99.90;;;;;;493966;241;28890;-72
2024/02/11 05:09:55;;;;;;;13.15;8.48;;;6.40;99.90;;;;;;493981;241;27490;-72
2024/02/11 05:11:57;;;;;;;15.75;8.57;;;6.40;99.90;;;;;;493941;241;27548;-72
2024/02/11 05:13:57;;;;;;;18.67;9.00;;;6.40;99.90;;;;;;493872;241;27531;-72
2024/02/11 05:16:02;;;;;;;20.50;9.20;;;6.40;99.90;;;;;;493991;241;28060;-74
2024/02/11 05:18:02;;;;;;;19.87;9.10;;;6.40;99.90;;;;;;493876;241;29296;-74
2024/02/11 05:20:06;;;;;;;22.77;9.13;;;6.40;99.90;;;;;;493990;241;27557;-72
2024/02/11 05:22:05;;;;;;;16.83;8.00;;;6.40;99.90;;;;;;493574;241;27795;-72
2024/02/11 05:24:06;;;;;;;13.60;8.17;;;6.40;99.90;;;;;;493834;241;27997;-72
2024/02/11 05:26:12;;;;;;;21.50;9.53;;;6.40;99.90;;;;;;493902;237;29467;-72
2024/02/11 05:28:19;;;;;;;15.93;8.95;;;6.40;99.90;;;;;;493599;241;28432;-73
2024/02/11 05:30:19;;;;;;;20.77;9.80;;;6.40;99.90;;;;;;493915;241;27573;-72
2024/02/11 05:32:21;;;;;;;14.70;8.50;;;6.40;99.90;;;;;;493941;241;28870;-72
2024/02/11 05:34:22;;;;;;;14.77;7.82;;;6.40;99.90;;;;;;493979;241;27940;-71
2024/02/11 05:36:23;;;;;;;10.83;7.77;;;6.40;99.90;;;;;;493952;241;27527;-73
2024/02/11 05:38:25;;;;;;;14.60;8.30;;;6.40;99.90;;;;;;493932;241;28799;-72
2024/02/11 05:40:29;;;;;;;12.97;8.47;;;6.40;99.90;;;;;;493926;241;28832;-72
2024/02/11 05:42:30;;;;;;;15.85;9.55;;;6.40;99.90;;;;;;493951;241;28814;-72
2024/02/11 05:44:31;;;;;;;16.05;9.32;;;6.40;99.90;;;;;;493940;241;27510;-73
2024/02/11 05:46:32;;;;;;;12.95;8.05;;;6.40;99.90;;;;;;493887;241;27548;-72
2024/02/11 05:48:34;;;;;;;13.60;8.20;;;6.40;99.90;;;;;;493909;241;27981;-72
2024/02/11 05:50:35;;;;;;;17.25;9.70;;;6.40;99.90;;;;;;493935;241;29417;-72
2024/02/11 05:52:36;;;;;;;16.60;8.00;;;6.50;99.90;;;;;;493984;237;27502;-72
2024/02/11 05:54:39;;;;;;;15.50;8.93;;;6.50;99.90;;;;;;493964;241;28669;-73
2024/02/11 05:56:39;;;;;;;18.20;9.27;;;6.50;99.90;;;;;;493872;241;28823;-72
2024/02/11 05:58:40;;;;;;;13.95;9.20;;;6.40;99.90;;;;;;493932;241;27532;-72
2024/02/11 06:00:42;;;;;;;15.33;9.50;;;6.40;99.90;;;;;;493933;241;27501;-75
2024/02/11 06:02:42;;;;;;;12.93;8.77;;;6.50;99.90;;;;;;493904;241;28812;-72
2024/02/11 06:04:44;;;;;;;16.65;8.70;;;6.40;99.90;;;;;;493933;241;28157;-72
2024/02/11 06:06:46;;;;;;;17.87;9.30;;;6.50;99.90;;;;;;493905;241;28999;-72
2024/02/11 06:08:47;;;;;;;18.30;9.60;;;6.60;99.90;;;;;;493958;241;27613;-73
2024/02/11 06:10:48;;;;;;;16.67;9.57;;;6.50;99.90;;;;;;493891;241;28090;-72
2024/02/11 06:12:49;;;;;;;16.40;9.90;;;6.50;99.90;;;;;;493950;241;27469;-72
2024/02/11 06:14:50;;;;;;;17.73;9.47;;;6.50;99.90;;;;;;493935;241;28917;-72
2024/02/11 06:16:52;;;;;;;20.83;9.43;;;6.60;99.90;;;;;;493970;241;28823;-73
2024/02/11 06:18:53;;;;;;;16.57;9.97;;;6.50;99.90;;;;;;493986;241;27938;-72
2024/02/11 06:20:54;;;;;;;14.70;9.75;;;6.50;99.90;;;;;;493935;241;28676;-72
2024/02/11 06:22:55;;;;;;;19.73;9.70;;;6.40;99.90;;;;;;493862;241;27544;-72
2024/02/11 06:24:56;;;;;;;16.20;10.50;;;6.50;99.90;;;;;;493949;241;28306;-72
2024/02/11 06:26:59;;;;;;;21.43;9.70;;;6.50;99.90;;;;;;493910;241;27509;-72
2024/02/11 06:29:01;;;;;;;13.90;9.37;;;6.50;99.90;;;;;;493921;241;28159;-72
2024/02/11 06:31:00;;;;;;;17.77;9.93;;;6.50;99.90;;;;;;493830;241;28907;-72
2024/02/11 06:33:01;;;;;;;14.23;9.07;;;6.50;99.90;;;;;;493927;241;28764;-72
2024/02/11 06:35:03;;;;;;;14.13;9.32;;;6.50;99.90;;;;;;493946;241;28417;-72
2024/02/11 06:37:04;;;;;;;16.55;10.18;;;6.40;99.90;;;;;;493931;241;27532;-73
2024/02/11 06:39:10;;;;;;;15.70;10.27;;;6.40;99.90;;;;;;493989;241;27545;-72
2024/02/11 06:41:06;;;;;;;16.70;10.18;;;6.50;99.90;;;;;;493559;241;28962;-72
2024/02/11 06:43:11;;;;;;;21.47;10.77;;;6.50;99.90;;;;;;493936;241;27511;-74
2024/02/11 06:45:12;;;;;;;14.77;9.23;;;6.40;99.90;;;;;;493745;241;28733;-72
2024/02/11 06:47:10;;;;;;;23.15;10.73;;;6.40;99.90;;;;;;493712;239;28998;-72
2024/02/11 06:49:11;;;;;;;15.15;9.43;;;6.40;99.90;;;;;;493980;241;27465;-72
2024/02/11 06:51:13;;;;;;;16.27;10.43;;;6.40;99.90;;;;;;494002;241;27500;-72
2024/02/11 06:53:14;;;;;;;19.73;11.17;;;6.40;99.90;;;;;;493990;241;27512;-74
2024/02/11 06:55:16;;;;;;;20.37;10.40;;;6.40;99.90;;;;;;493983;241;28157;-72
2024/02/11 06:57:17;;;;;;;22.57;10.00;;;6.50;99.90;;;;;;493918;241;28013;-72
2024/02/11 06:59:18;;;;;;;21.63;10.37;;;6.40;99.90;;;;;;493935;241;30121;-72
2024/02/11 07:01:21;;;;;;;19.50;9.67;;;6.40;99.90;;;;;;493987;241;28398;-72
2024/02/11 07:03:21;;;;;;;21.00;10.87;;;6.40;99.90;;;;;;493694;241;28648;-73
2024/02/11 07:05:21;;;;;;;13.53;9.57;;;6.50;99.90;;;;;;493928;241;28269;-72
2024/02/11 07:07:24;;;;;;;18.00;10.27;;;6.50;99.90;;;;;;493608;241;28110;-72
2024/02/11 07:09:24;;;;;;;19.27;11.43;;;6.50;99.90;;;;;;493895;237;28834;-72
2024/02/11 07:11:28;;;;;;;23.07;10.63;;;6.50;99.90;;;;;;493965;237;27570;-72
2024/02/11 07:13:27;;;;;;;18.98;10.75;;;6.50;99.90;;;;;;493806;241;28941;-72
2024/02/11 07:15:28;;;;;;;16.12;9.30;;;6.50;99.90;;;;;;493955;241;27937;-71
2024/02/11 07:17:30;;;;;;;18.45;10.23;;;6.50;99.90;;;;;;493884;241;27577;-72
2024/02/11 07:19:31;;;;;;;17.85;10.15;;;6.50;99.90;;;;;;493963;241;27668;-74
2024/02/11 07:21:33;;;;;;;16.17;9.07;;;6.40;99.90;;;;;;493940;241;27559;-72
2024/02/11 07:23:33;;;;;;;15.60;8.90;;;6.50;99.90;;;;;;493871;241;27541;-72
2024/02/11 07:25:35;;;;;;;15.03;9.53;;;6.50;99.90;;;;;;493932;241;29182;-72
2024/02/11 07:27:35;;;;;;;13.10;9.20;;;6.50;99.90;;;;;;493845;241;28574;-72
2024/02/11 07:29:38;;;;;;;22.05;10.30;;;6.60;99.90;;;;;;493979;241;29081;-73
2024/02/11 07:31:39;;;;;;;14.37;9.83;;;6.60;99.90;;;;;;493941;241;27489;-72
2024/02/11 07:33:39;;;;;;;12.23;8.82;;;6.60;99.90;;;;;;493855;241;27778;-72
2024/02/11 07:35:40;;;;;;;15.38;9.32;;;6.60;99.90;;;;;;494019;241;27954;-74
2024/02/11 07:37:43;;;;;;;17.17;9.40;;;6.60;99.90;;;;;;493984;241;27605;-72
2024/02/11 07:39:43;;;;;;;15.40;9.67;;;6.70;99.90;;;;;;493964;241;28640;-72
2024/02/11 07:41:45;;;;;;;12.83;9.33;;;6.70;99.90;;;;;;493961;241;28252;-72
2024/02/11 07:43:46;;;;;;;13.97;9.30;;;6.70;99.90;;;;;;493807;241;28635;-72
2024/02/11 07:45:47;;;;;;;14.45;9.20;;;6.70;99.90;;;;;;494006;241;28223;-76
2024/02/11 07:47:48;;;;;;;13.52;9.00;;;6.80;99.90;;;;;;493961;241;27490;-71
2024/02/11 07:49:50;;;;;;;12.83;10.10;;;6.80;99.90;;;;;;493996;241;27474;-72
2024/02/11 07:51:50;;;;;;;16.00;9.40;;;6.80;99.90;;;;;;493993;241;27879;-71
2024/02/11 07:53:52;;;;;;;18.70;10.63;;;6.70;99.90;;;;;;493974;241;27471;-72
2024/02/11 07:55:53;;;;;;;17.20;9.23;;;6.60;99.90;;;;;;493972;241;27965;-73
2024/02/11 07:57:55;;;;;;;19.90;9.17;;;6.60;99.90;;;;;;493996;241;28152;-72
2024/02/11 07:59:58;;;;;;;16.30;8.67;;;6.60;99.90;;;;;;493952;241;27944;-72
2024/02/11 08:01:57;;;;;;;13.53;8.90;;;6.60;99.90;;;;;;493875;241;27998;-71
2024/02/11 08:03:58;;;;;;;16.63;9.83;;;6.60;99.90;;;;;;494018;241;28053;-72
2024/02/11 08:05:59;;;;;;;14.23;9.07;;;6.60;99.90;;;;;;493947;241;28046;-73
2024/02/11 08:08:00;;;;;;;16.40;9.13;;;6.60;99.90;;;;;;493956;241;27961;-72
2024/02/11 08:10:02;;;;;;;14.80;8.97;;;6.60;99.90;;;;;;493933;241;27575;-72
2024/02/11 08:12:03;;;;;;;15.52;9.00;;;6.60;99.90;;;;;;493969;241;28192;-75
2024/02/11 08:14:04;;;;;;;11.55;7.25;;;6.70;99.90;;;;;;493914;241;28034;-72
2024/02/11 08:16:07;;;;;;;18.27;8.80;;;6.60;99.90;;;;;;493964;241;27527;-72
2024/02/11 08:18:08;;;;;;;16.57;9.33;;;6.60;99.90;;;;;;493881;241;27989;-72
2024/02/11 08:20:09;;;;;;;14.40;8.82;;;6.60;99.90;;;;;;493870;241;28249;-72
2024/02/11 08:22:11;;;;;;;14.65;8.38;;;6.60;99.90;;;;;;493953;241;27489;-72
2024/02/11 08:24:11;;;;;;;13.07;8.30;;;6.60;99.90;;;;;;493726;241;27469;-72
2024/02/11 08:26:12;;;;;;;12.05;8.15;;;6.60;99.90;;;;;;493860;241;28840;-72
2024/02/11 08:28:13;;;;;;;15.30;8.80;;;6.60;99.90;;;;;;493986;241;28142;-74
2024/02/11 08:30:14;;;;;;;11.37;7.83;;;6.70;99.90;;;;;;493981;241;28401;-72
2024/02/11 08:32:16;;;;;;;12.63;8.87;;;6.70;99.90;;;;;;493957;241;27618;-72
2024/02/11 08:34:17;;;;;;;17.10;8.07;;;6.70;99.90;;;;;;493940;241;28519;-72
2024/02/11 08:36:18;;;;;;;15.80;8.40;;;6.70;99.90;;;;;;493894;241;28095;-72
2024/02/11 08:38:19;;;;;;;10.33;8.63;;;6.80;99.90;;;;;;494006;241;27944;-74
2024/02/11 08:40:21;;;;;;;13.43;8.47;;;6.80;99.90;;;;;;494016;241;28907;-72
2024/02/11 08:42:22;;;;;;;15.40;9.00;;;6.70;99.90;;;;;;493960;241;27630;-72
2024/02/11 08:44:24;;;;;;;12.33;8.43;;;6.80;99.90;;;;;;493937;241;28139;-72
2024/02/11 08:46:24;;;;;;;16.77;9.20;;;6.80;99.90;;;;;;493938;241;28097;-72
2024/02/11 08:48:26;;;;;;;12.97;9.03;;;6.80;99.90;;;;;;493985;241;27854;-73
2024/02/11 08:50:27;;;;;;;12.10;8.43;;;6.80;99.90;;;;;;493983;241;28458;-72
2024/02/11 08:52:28;;;;;;;13.53;8.77;;;6.70;99.90;;;;;;493945;241;29225;-72
2024/02/11 08:54:36;;;;;;;11.50;8.33;;;6.80;99.90;;;;;;493957;241;30217;-72
2024/02/11 08:56:34;;;;;;;14.23;9.03;;;6.80;99.90;;;;;;493700;241;28485;-73
2024/02/11 08:58:35;;;;;;;11.97;8.63;;;6.80;99.90;;;;;;494016;241;28477;-72
2024/02/11 09:00:36;;;;;;;12.50;8.07;;;6.80;99.90;;;;;;493977;241;28129;-72
2024/02/11 09:02:37;;;;;;;11.47;7.27;;;6.80;99.90;;;;;;493970;241;27853;-72
2024/02/11 09:04:39;;;;;;;15.53;7.80;;;6.80;99.90;;;;;;493975;241;27967;-72
2024/02/11 09:06:40;;;;;;;17.40;9.43;;;6.80;99.90;;;;;;493965;241;28110;-74
2024/02/11 09:08:41;;;;;;;15.30;8.90;;;6.80;99.90;;;;;;494003;241;27892;-72
2024/02/11 09:10:42;;;;;;;14.40;8.00;;;6.80;99.90;;;;;;494010;241;27624;-73
2024/02/11 09:12:44;;;;;;;11.80;7.27;;;6.90;99.90;;;;;;493956;241;27950;-72
2024/02/11 09:14:47;;;;;;;16.27;7.73;;;7.10;99.90;;;;;;493989;241;28035;-72
2024/02/11 09:16:46;;;;;;;12.00;7.50;;;7.20;99.90;;;;;;493820;241;29304;-73
2024/02/11 09:18:47;;;;;;;15.43;7.40;;;7.30;99.90;;;;;;493972;241;28465;-72
2024/02/11 09:20:49;;;;;;;13.63;7.33;;;7.40;99.90;;;;;;493969;241;28454;-72
2024/02/11 09:22:50;;;;;;;11.77;7.70;;;7.40;99.90;;;;;;493992;241;28495;-72
2024/02/11 09:24:52;;;;;;;12.73;7.50;;;7.30;99.90;;;;;;494001;241;27765;-72
2024/02/11 09:26:52;;;;;;;13.33;8.00;;;7.20;99.90;;;;;;493909;241;28067;-73
2024/02/11 09:28:54;;;;;;;12.00;7.33;;;7.20;99.90;;;;;;493985;241;27713;-72
2024/02/11 09:30:55;;;;;;;12.07;7.27;;;7.30;99.90;;;;;;493973;241;27848;-72
2024/02/11 09:32:56;;;;;;;10.33;7.60;;;7.30;99.90;;;;;;493985;241;28203;-72
2024/02/11 09:34:57;;;;;;;14.63;7.67;;;7.20;99.90;;;;;;493919;241;27799;-72
2024/02/11 09:36:59;;;;;;;15.67;8.13;;;7.20;99.90;;;;;;493924;241;27901;-72
2024/02/11 09:39:00;;;;;;;11.40;7.40;;;7.20;99.90;;;;;;493938;241;27714;-72
2024/02/11 09:41:04;;;;;;;10.90;7.40;;;7.20;99.90;;;;;;493954;241;27972;-72
2024/02/11 09:43:02;;;;;;;14.67;7.03;;;7.20;99.90;;;;;;493691;241;28457;-73
2024/02/11 09:45:04;;;;;;;10.50;7.53;;;7.20;99.90;;;;;;493920;241;28434;-72
2024/02/11 09:47:05;;;;;;;10.80;7.53;;;7.20;99.90;;;;;;493880;241;28382;-72
2024/02/11 09:49:06;;;;;;;9.70;6.90;;;7.20;99.90;;;;;;493930;241;28002;-72
2024/02/11 09:51:08;;;;;;;11.13;6.40;;;7.20;99.90;;;;;;493961;241;27868;-72
2024/02/11 09:53:10;;;;;;;8.67;6.13;;;7.20;99.90;;;;;;493955;241;27961;-73
2024/02/11 09:55:10;;;;;;;14.20;5.80;;;7.00;99.90;;;;;;493836;237;27679;-72
2024/02/11 09:57:11;;;;;;;6.75;5.93;;;7.00;99.90;;;;;;493878;241;28050;-72
2024/02/11 09:59:12;;;;;;;10.43;6.97;;;7.00;99.90;;;;;;494011;241;27858;-74
2024/02/11 10:01:14;;;;;;;8.17;6.00;;;7.00;99.90;;;;;;493936;241;27997;-72
2024/02/11 10:03:15;;;;;;;8.47;6.67;;;7.00;99.90;;;;;;493795;241;28873;-72
2024/02/11 10:05:16;;;;;;;10.53;6.43;;;7.00;99.90;;;;;;493934;241;28147;-72
2024/02/11 10:07:21;;;;;;;15.70;7.07;;;7.00;99.90;;;;;;493901;241;28123;-72
2024/02/11 10:09:19;;;;;;;9.33;6.00;;;7.10;99.90;;;;;;493589;241;29347;-74
2024/02/11 10:11:20;;;;;;;7.33;6.13;;;7.20;99.90;;;;;;493947;241;28494;-72
2024/02/11 10:13:21;;;;;;;11.13;6.30;;;7.40;99.90;;;;;;493926;241;28747;-71
2024/02/11 10:15:22;;;;;;;9.90;6.13;;;7.50;99.90;;;;;;493922;241;27809;-72
2024/02/11 10:17:24;;;;;;;11.93;6.17;;;7.50;99.90;;;;;;493910;241;27816;-72
2024/02/11 10:19:26;;;;;;;11.33;6.40;;;7.60;99.90;;;;;;493991;241;28186;-73
2024/02/11 10:21:26;;;;;;;11.20;6.07;;;7.60;99.90;;;;;;493909;241;27894;-72
2024/02/11 10:23:28;;;;;;;9.90;5.93;;;7.60;99.90;;;;;;493911;241;28019;-73
2024/02/11 10:25:29;;;;;;;7.43;5.20;;;7.60;99.90;;;;;;493928;241;27992;-72
2024/02/11 10:27:30;;;;;;;12.30;6.27;;;7.50;99.90;;;;;;493988;241;28048;-72
2024/02/11 10:29:32;;;;;;;11.30;6.27;;;7.50;99.90;;;;;;493984;241;28100;-74
2024/02/11 10:31:32;;;;;;;8.50;5.80;;;7.60;99.90;;;;;;493988;241;27818;-72
2024/02/11 10:33:34;;;;;;;9.60;4.97;;;7.50;99.90;;;;;;493965;241;27992;-72